createdAt,value
2019-05-11T00:07:00.921Z,20.37
2019-05-11T00:27:10.303Z,22.49
2019-05-11T00:47:21.946Z,22.59
2019-05-11T01:07:21.509Z,22.42
2019-05-11T01:27:30.922Z,21.38
2019-05-11T01:47:40.319Z,34.72
2019-05-11T02:07:49.780Z,24.81
2019-05-11T02:27:59.140Z,23.60
2019-05-11T02:48:10.809Z,21.37
2019-05-11T03:08:12.621Z,21.12
2019-05-11T03:28:12.042Z,22.67
2019-05-11T03:48:23.655Z,39.27
2019-05-11T04:08:23.043Z,28.76
2019-05-11T04:28:32.710Z,34.61
2019-05-11T04:48:42.093Z,32.39
2019-05-11T05:08:51.423Z,42.93
2019-05-11T05:29:00.777Z,48.50
2019-05-11T05:49:10.263Z,31.19
2019-05-11T06:09:19.848Z,34.03
2019-05-11T06:29:29.295Z,28.21
2019-05-11T06:49:38.653Z,28.65
2019-05-11T07:09:48.081Z,22.86
2019-05-11T14:21:07.832Z,13.33
2019-05-11T14:41:07.761Z,9.82
2019-05-11T15:01:05.938Z,6.90
2019-05-11T15:21:18.838Z,9.16
2019-05-11T15:41:17.741Z,9.37
2019-05-11T16:01:26.153Z,12.91
2019-05-11T16:21:38.096Z,12.07
2019-05-11T16:41:44.569Z,9.86
2019-05-11T17:01:54.686Z,18.16
2019-05-11T17:21:54.182Z,6.66
2019-05-11T17:42:08.864Z,7.95
2019-05-11T18:02:05.719Z,7.58
2019-05-11T18:22:13.917Z,9.30
2019-05-11T18:42:23.509Z,8.87
2019-05-11T19:02:38.531Z,13.99
2019-05-11T19:22:36.547Z,12.59
2019-05-11T19:42:48.217Z,13.95
2019-05-11T20:02:47.875Z,15.85
2019-05-11T20:22:58.427Z,17.49
2019-05-11T20:43:07.996Z,19.91
2019-05-11T21:03:15.659Z,21.26
2019-05-11T21:23:23.584Z,22.24
2019-05-11T21:43:33.039Z,33.11
2019-05-11T22:03:42.441Z,32.55
2019-05-11T22:23:51.808Z,20.82
2019-05-11T22:44:03.492Z,23.78
2019-05-11T23:04:02.815Z,25.35
2019-05-11T23:24:12.273Z,25.32
2019-05-11T23:44:21.642Z,24.00
